createdAt,value
2022-08-11T00:01:27.485Z,18.43
2022-08-11T00:04:00.799Z,18.26
2022-08-11T00:06:36.913Z,18.16
2022-08-11T00:09:21.516Z,18.23
2022-08-11T00:11:58.747Z,18.34
2022-08-11T00:14:37.118Z,18.26
2022-08-11T00:17:16.004Z,18.01
2022-08-11T00:20:11.940Z,18.07
2022-08-11T00:22:38.026Z,18.00
2022-08-11T00:25:18.221Z,18.08
2022-08-11T00:27:47.445Z,17.89
2022-08-11T00:30:16.159Z,17.83
2022-08-11T00:32:54.332Z,17.84
2022-08-11T00:35:53.995Z,18.00
2022-08-11T00:38:17.660Z,18.00
2022-08-11T00:41:18.272Z,17.79
2022-08-11T00:44:13.085Z,17.89
2022-08-11T00:47:04.712Z,17.94
2022-08-11T00:50:01.208Z,17.98
2022-08-11T00:53:02.949Z,17.87
2022-08-11T00:56:30.824Z,17.71
2022-08-11T00:59:54.400Z,17.68
2022-08-11T01:02:58.102Z,17.67
2022-08-11T01:05:46.134Z,17.57
2022-08-11T01:08:55.271Z,17.66
2022-08-11T01:11:56.371Z,17.57
2022-08-11T01:14:54.290Z,17.52
2022-08-11T01:17:52.938Z,17.39
2022-08-11T01:21:17.741Z,17.45
2022-08-11T01:24:31.543Z,17.34
2022-08-11T01:27:30.273Z,17.38
2022-08-11T01:30:28.120Z,17.22
2022-08-11T01:33:47.840Z,17.23
2022-08-11T01:36:56.912Z,17.31
2022-08-11T01:39:45.546Z,17.20
2022-08-11T01:43:29.767Z,17.15
2022-08-11T01:46:07.549Z,17.12
2022-08-11T01:50:01.033Z,17.07
2022-08-11T01:52:45.176Z,17.10
2022-08-11T01:56:05.185Z,17.03
2022-08-11T01:59:15.573Z,17.10
2022-08-11T02:02:48.604Z,16.84
2022-08-11T02:05:26.972Z,16.96
2022-08-11T02:08:50.783Z,16.85
2022-08-11T02:11:35.602Z,17.03
2022-08-11T02:14:32.626Z,17.02
2022-08-11T02:17:47.540Z,16.86
2022-08-11T02:20:52.440Z,16.79
2022-08-11T02:24:05.548Z,16.51
2022-08-11T02:26:48.834Z,16.39
2022-08-11T02:29:53.062Z,16.45
2022-08-11T02:33:10.949Z,16.42
2022-08-11T02:36:08.388Z,16.50
2022-08-11T02:38:51.713Z,16.39
2022-08-11T02:42:00.468Z,16.46
2022-08-11T02:44:57.518Z,16.59
2022-08-11T02:48:04.365Z,16.59
2022-08-11T02:50:56.470Z,16.52
2022-08-11T02:54:01.790Z,16.48
2022-08-11T02:56:52.355Z,16.61
2022-08-11T02:59:51.000Z,16.32
2022-08-11T03:02:52.869Z,16.46
2022-08-11T03:05:37.942Z,16.57
2022-08-11T03:08:24.224Z,16.32
2022-08-11T03:11:52.559Z,16.37
2022-08-11T03:15:20.898Z,16.11
2022-08-11T03:18:49.382Z,16.30
2022-08-11T03:22:01.945Z,16.39
2022-08-11T03:24:54.831Z,16.11
2022-08-11T03:27:39.656Z,16.45
2022-08-11T03:30:21.375Z,16.11
2022-08-11T03:33:25.430Z,16.05
2022-08-11T03:36:04.661Z,16.19
2022-08-11T03:39:00.640Z,16.05
2022-08-11T03:42:03.737Z,16.14
2022-08-11T03:45:02.373Z,16.23
2022-08-11T03:48:11.458Z,16.26
2022-08-11T03:51:15.071Z,16.41
2022-08-11T03:54:26.990Z,16.42
2022-08-11T03:57:24.647Z,16.97
2022-08-11T04:00:26.288Z,19.03
2022-08-11T04:03:13.383Z,20.70
2022-08-11T04:06:26.389Z,22.20
2022-08-11T04:09:39.384Z,23.70
2022-08-11T04:12:47.180Z,24.20
2022-08-11T04:16:11.002Z,25.57
2022-08-11T04:19:23.934Z,26.93
2022-08-11T04:22:37.943Z,28.11
2022-08-11T04:25:16.795Z,28.68
2022-08-11T04:27:54.359Z,30.05
2022-08-11T04:31:07.233Z,30.50
2022-08-11T04:34:00.522Z,30.91
2022-08-11T04:37:13.396Z,31.34
2022-08-11T04:40:06.313Z,33.06
2022-08-11T04:43:25.113Z,33.72
2022-08-11T04:46:18.752Z,34.09
2022-08-11T04:49:33.164Z,34.79
2022-08-11T04:52:38.467Z,36.20
2022-08-11T04:55:51.373Z,37.27
2022-08-11T04:58:56.012Z,36.97
2022-08-11T05:02:17.672Z,37.16
2022-08-11T05:05:17.807Z,37.89
2022-08-11T05:08:24.955Z,37.69
2022-08-11T05:11:47.384Z,38.19
2022-08-11T05:14:33.034Z,38.10
2022-08-11T05:17:29.341Z,38.73
2022-08-11T05:20:15.072Z,39.77
2022-08-11T05:23:10.309Z,39.84
2022-08-11T05:26:46.455Z,40.13
2022-08-11T05:29:21.171Z,40.59
2022-08-11T05:32:18.044Z,40.28
2022-08-11T05:34:53.459Z,40.64
2022-08-11T05:37:27.081Z,41.42
2022-08-11T05:40:30.716Z,41.29
2022-08-11T05:43:27.441Z,41.76
2022-08-11T05:46:23.600Z,40.91
2022-08-11T05:49:11.117Z,42.50
2022-08-11T05:52:05.388Z,42.92
2022-08-11T05:55:05.995Z,42.59
2022-08-11T05:57:48.910Z,42.62
2022-08-11T06:00:21.005Z,43.15
2022-08-11T06:02:55.674Z,43.21
2022-08-11T06:05:25.150Z,43.71
2022-08-11T06:07:57.213Z,43.83
2022-08-11T06:10:34.741Z,45.19
2022-08-11T06:13:02.821Z,43.74
2022-08-11T06:15:34.788Z,44.57
2022-08-11T06:18:03.570Z,44.05
2022-08-11T06:20:36.972Z,44.20
2022-08-11T06:23:07.831Z,44.73
2022-08-11T06:25:37.274Z,45.32
2022-08-11T06:28:07.452Z,45.83
2022-08-11T06:30:46.219Z,44.63
2022-08-11T06:33:31.287Z,45.04
2022-08-11T06:36:23.937Z,45.32
2022-08-11T06:39:09.754Z,46.15
2022-08-11T06:41:51.958Z,44.90
2022-08-11T06:44:32.711Z,44.51
2022-08-11T06:47:15.972Z,43.89
2022-08-11T06:50:08.435Z,43.93
2022-08-11T06:52:39.132Z,43.74
2022-08-11T06:55:58.220Z,44.05
2022-08-11T06:58:44.999Z,43.34
2022-08-11T07:01:17.166Z,44.14
2022-08-11T07:03:54.639Z,44.12
2022-08-11T07:06:51.151Z,43.58
2022-08-11T07:10:01.507Z,43.20
2022-08-11T07:13:09.204Z,45.06
2022-08-11T07:16:11.300Z,44.04
2022-08-11T07:18:59.387Z,43.55
2022-08-11T07:22:01.091Z,43.44
2022-08-11T07:25:03.607Z,42.84
2022-08-11T07:28:10.652Z,42.58
2022-08-11T07:30:42.653Z,42.36
2022-08-11T07:33:21.126Z,42.29
2022-08-11T07:36:02.981Z,41.77
2022-08-11T07:38:47.231Z,41.22
2022-08-11T07:41:20.264Z,40.32
2022-08-11T07:43:55.599Z,38.89
2022-08-11T07:46:42.761Z,38.63
2022-08-11T07:49:29.940Z,38.03
2022-08-11T07:52:16.615Z,37.26
2022-08-11T07:54:45.425Z,37.01
2022-08-11T07:58:14.683Z,37.16
2022-08-11T08:00:42.940Z,36.35
2022-08-11T08:03:33.003Z,37.48
2022-08-11T08:06:28.664Z,37.01
2022-08-11T08:09:24.919Z,37.07
2022-08-11T08:12:11.119Z,37.37
2022-08-11T08:14:57.071Z,38.42
2022-08-11T08:17:44.431Z,38.29
2022-08-11T08:20:37.490Z,36.65
2022-08-11T08:23:06.389Z,36.19
2022-08-11T08:25:38.105Z,35.50
2022-08-11T08:28:10.236Z,35.47
2022-08-11T08:30:47.626Z,36.07
2022-08-11T08:33:26.399Z,34.67
2022-08-11T08:36:12.541Z,33.48
2022-08-11T08:38:53.134Z,34.27
2022-08-11T08:41:29.235Z,32.84
2022-08-11T08:44:27.716Z,33.30
2022-08-11T08:46:55.017Z,33.24
2022-08-11T08:49:40.269Z,32.96
2022-08-11T08:52:25.315Z,33.49
2022-08-11T08:55:05.430Z,32.78
2022-08-11T08:57:39.871Z,31.85
2022-08-11T09:00:12.482Z,32.17
2022-08-11T09:02:40.247Z,31.04
2022-08-11T09:05:10.038Z,31.31
2022-08-11T09:07:40.798Z,31.48
2022-08-11T09:10:11.088Z,30.84
2022-08-11T09:12:42.648Z,30.19
2022-08-11T09:15:11.980Z,30.42
2022-08-11T09:17:48.993Z,31.40
2022-08-11T09:20:26.282Z,31.72
2022-08-11T09:26:30.378Z,31.92
2022-08-11T09:29:00.245Z,31.40
2022-08-11T09:31:39.780Z,31.98
2022-08-11T09:34:10.357Z,31.63
2022-08-11T09:36:59.874Z,31.03
2022-08-11T09:39:49.142Z,30.40
2022-08-11T09:42:23.446Z,31.31
2022-08-11T09:44:53.877Z,31.50
2022-08-11T09:47:28.857Z,31.27
2022-08-11T09:50:01.153Z,31.13
2022-08-11T09:52:32.233Z,31.76
2022-08-11T09:55:00.064Z,32.19
2022-08-11T09:57:46.055Z,32.65
2022-08-11T10:00:15.332Z,32.27
2022-08-11T10:02:47.387Z,31.65
2022-08-11T10:05:38.163Z,31.96
2022-08-11T10:08:07.383Z,31.24
2022-08-11T10:10:39.597Z,31.29
2022-08-11T10:14:31.005Z,32.11
2022-08-11T10:16:15.764Z,31.68
2022-08-11T10:18:52.238Z,32.24
2022-08-11T10:21:42.637Z,32.56
2022-08-11T10:24:30.718Z,32.00
2022-08-11T10:27:03.477Z,31.41
2022-08-11T10:29:56.764Z,31.59
2022-08-11T10:32:58.852Z,31.22
2022-08-11T10:35:32.594Z,30.94
2022-08-11T10:38:07.357Z,30.31
2022-08-11T10:40:40.966Z,30.39
2022-08-11T10:44:02.170Z,30.20
2022-08-11T10:46:30.190Z,30.26
2022-08-11T10:49:00.417Z,30.63
2022-08-11T10:51:50.419Z,30.25
2022-08-11T10:54:39.022Z,29.99
2022-08-11T10:57:25.382Z,30.33
2022-08-11T10:59:57.422Z,30.24
2022-08-11T11:02:27.282Z,30.43
2022-08-11T11:05:25.108Z,30.38
2022-08-11T11:08:26.801Z,29.58
2022-08-11T11:10:54.529Z,29.00
2022-08-11T11:13:53.172Z,28.60
2022-08-11T11:16:42.532Z,28.24
2022-08-11T11:19:11.248Z,28.40
2022-08-11T11:21:39.775Z,28.02
2022-08-11T11:24:27.313Z,28.37
2022-08-11T11:27:06.924Z,28.15
2022-08-11T11:30:00.703Z,28.34
2022-08-11T11:32:51.646Z,28.54
2022-08-11T11:35:56.388Z,27.54
2022-08-11T11:38:23.489Z,27.30
2022-08-11T11:41:11.227Z,27.20
2022-08-11T11:43:38.973Z,27.00
2022-08-11T11:46:07.842Z,26.87
2022-08-11T11:48:37.240Z,27.28
2022-08-11T11:51:05.051Z,27.83
2022-08-11T11:53:33.031Z,28.20
2022-08-11T11:56:01.161Z,28.72
2022-08-11T11:58:47.528Z,28.89
2022-08-11T12:01:19.843Z,29.08
2022-08-11T12:03:51.216Z,29.04
2022-08-11T12:06:21.928Z,28.94
2022-08-11T12:08:52.343Z,29.02
2022-08-11T12:11:41.207Z,28.87
2022-08-11T12:14:12.114Z,28.66
2022-08-11T12:16:45.656Z,28.42
2022-08-11T12:19:21.492Z,28.59
2022-08-11T12:22:07.671Z,28.45
2022-08-11T12:24:55.489Z,28.12
2022-08-11T12:27:25.368Z,27.85
2022-08-11T12:30:11.501Z,27.79
2022-08-11T12:32:43.477Z,27.79
2022-08-11T12:35:11.461Z,27.65
2022-08-11T12:37:44.379Z,27.61
2022-08-11T12:40:49.412Z,27.47
2022-08-11T12:43:46.209Z,27.80
2022-08-11T12:46:37.680Z,27.64
2022-08-11T12:49:41.911Z,27.72
2022-08-11T12:52:21.138Z,27.73
2022-08-11T12:55:13.569Z,27.53
2022-08-11T12:58:05.910Z,27.49
2022-08-11T13:00:52.214Z,27.38
2022-08-11T13:03:39.954Z,27.59
2022-08-11T13:06:09.031Z,28.03
2022-08-11T13:08:39.579Z,28.18
2022-08-11T13:11:54.693Z,28.38
2022-08-11T13:14:16.988Z,28.33
2022-08-11T13:17:18.274Z,28.36
2022-08-11T13:19:49.646Z,28.09
2022-08-11T13:22:20.313Z,27.61
2022-08-11T13:24:50.031Z,27.38
2022-08-11T13:27:19.029Z,27.05
2022-08-11T13:29:47.759Z,26.88
2022-08-11T13:32:16.476Z,26.83
2022-08-11T13:34:44.313Z,27.09
2022-08-11T13:37:14.695Z,27.31
2022-08-11T13:39:47.404Z,27.11
2022-08-11T13:42:18.127Z,27.40
2022-08-11T13:44:45.529Z,27.40
2022-08-11T13:47:15.120Z,27.01
2022-08-11T13:49:44.492Z,27.05
2022-08-11T13:52:16.952Z,27.22
2022-08-11T13:54:48.209Z,27.33
2022-08-11T13:58:06.574Z,27.44
2022-08-11T14:00:23.555Z,27.67
2022-08-11T14:02:57.220Z,27.45
2022-08-11T14:05:33.991Z,27.32
2022-08-11T14:08:37.017Z,27.18
2022-08-11T14:12:22.096Z,26.95
2022-08-11T14:14:13.700Z,27.05
2022-08-11T14:16:44.590Z,27.31
2022-08-11T14:19:15.031Z,27.41
2022-08-11T14:22:07.413Z,27.32
2022-08-11T14:24:49.624Z,27.56
2022-08-11T14:28:32.360Z,27.54
2022-08-11T14:30:26.701Z,27.23
2022-08-11T14:32:56.078Z,27.05
2022-08-11T14:35:26.571Z,26.60
2022-08-11T14:37:56.167Z,26.72
2022-08-11T14:40:42.741Z,26.72
2022-08-11T14:44:12.232Z,26.52
2022-08-11T14:46:34.219Z,26.32
2022-08-11T14:49:02.075Z,26.75
2022-08-11T14:51:29.630Z,26.71
2022-08-11T14:54:17.622Z,26.20
2022-08-11T14:56:45.271Z,26.44
2022-08-11T14:59:14.009Z,26.44
2022-08-11T15:01:59.945Z,26.23
2022-08-11T15:04:35.215Z,26.24
2022-08-11T15:07:04.836Z,26.42
2022-08-11T15:12:34.386Z,26.31
2022-08-11T15:15:23.283Z,26.48
2022-08-11T15:17:54.159Z,26.52
2022-08-11T15:20:41.539Z,26.58
2022-08-11T15:23:27.212Z,26.63
2022-08-11T15:26:50.812Z,26.77
2022-08-11T15:29:42.151Z,26.76
2022-08-11T15:32:30.906Z,26.69
2022-08-11T15:35:22.028Z,26.65
2022-08-11T15:37:58.470Z,26.56
2022-08-11T15:40:52.097Z,26.37
2022-08-11T15:43:42.691Z,26.70
2022-08-11T15:46:31.938Z,26.55
2022-08-11T15:49:08.218Z,26.27
2022-08-11T15:51:42.702Z,26.19
2022-08-11T15:54:15.889Z,26.40
2022-08-11T15:56:48.183Z,26.53
2022-08-11T15:59:43.047Z,26.49
2022-08-11T16:02:33.813Z,26.25
2022-08-11T16:05:05.909Z,26.08
2022-08-11T16:07:36.320Z,26.04
2022-08-11T16:10:21.826Z,25.73
2022-08-11T16:13:07.886Z,25.98
2022-08-11T16:16:03.934Z,26.03
2022-08-11T16:18:41.864Z,25.98
2022-08-11T16:21:36.187Z,25.69
2022-08-11T16:27:01.927Z,25.56
2022-08-11T16:27:13.438Z,25.73
2022-08-11T16:29:48.127Z,25.67
2022-08-11T16:32:22.292Z,25.63
2022-08-11T16:35:26.196Z,25.54
2022-08-11T16:38:13.782Z,25.32
2022-08-11T16:40:44.007Z,25.26
2022-08-11T16:43:36.346Z,25.50
2022-08-11T16:46:25.353Z,25.31
2022-08-11T16:48:53.896Z,25.17
2022-08-11T16:51:22.641Z,25.02
2022-08-11T16:54:05.194Z,25.03
2022-08-11T16:56:49.556Z,25.15
2022-08-11T16:59:31.502Z,25.07
2022-08-11T17:02:35.666Z,25.03
2022-08-11T17:05:38.307Z,25.12
2022-08-11T17:09:07.412Z,24.81
2022-08-11T17:12:09.584Z,24.90
2022-08-11T17:14:53.207Z,24.90
2022-08-11T17:17:35.963Z,24.75
2022-08-11T17:20:39.428Z,24.74
2022-08-11T17:23:17.533Z,24.55
2022-08-11T17:26:00.433Z,24.66
2022-08-11T17:28:32.097Z,24.58
2022-08-11T17:31:22.850Z,24.58
2022-08-11T17:34:11.506Z,24.46
2022-08-11T17:36:44.599Z,24.10
2022-08-11T17:39:13.733Z,24.14
2022-08-11T17:42:00.706Z,24.05
2022-08-11T17:44:46.654Z,24.16
2022-08-11T17:47:41.089Z,24.09
2022-08-11T17:50:17.331Z,23.99
2022-08-11T17:53:05.621Z,23.71
2022-08-11T17:55:56.060Z,23.79
2022-08-11T17:58:45.064Z,23.76
2022-08-11T18:01:14.113Z,23.58
2022-08-11T18:03:57.577Z,23.59
2022-08-11T18:06:34.527Z,23.47
2022-08-11T18:09:26.750Z,23.43
2022-08-11T18:12:14.666Z,23.39
2022-08-11T18:15:12.317Z,23.35
2022-08-11T18:17:59.757Z,23.27
2022-08-11T18:20:46.385Z,23.08
2022-08-11T18:23:45.627Z,23.02
2022-08-11T18:26:40.348Z,23.05
2022-08-11T18:29:27.457Z,22.94
2022-08-11T18:32:20.686Z,22.60
2022-08-11T18:35:10.994Z,22.52
2022-08-11T18:38:02.485Z,22.44
2022-08-11T18:40:49.197Z,22.44
2022-08-11T18:43:38.502Z,22.51
2022-08-11T18:46:28.044Z,22.47
2022-08-11T18:49:22.398Z,22.50
2022-08-11T18:52:13.773Z,22.65
2022-08-11T18:55:03.212Z,22.73
2022-08-11T18:57:53.750Z,22.73
2022-08-11T19:00:41.636Z,22.67
2022-08-11T19:03:30.852Z,22.67
2022-08-11T19:06:38.931Z,22.68
2022-08-11T19:09:31.933Z,22.64
2022-08-11T19:12:19.875Z,22.69
2022-08-11T19:15:09.347Z,22.68
2022-08-11T19:17:58.904Z,22.60
2022-08-11T19:20:49.075Z,22.42
2022-08-11T19:23:43.443Z,22.50
2022-08-11T19:26:30.255Z,22.56
2022-08-11T19:30:08.018Z,22.51
2022-08-11T19:32:23.927Z,22.53
2022-08-11T19:35:11.617Z,22.47
2022-08-11T19:37:59.575Z,22.46
2022-08-11T19:40:47.251Z,22.44
2022-08-11T19:43:33.402Z,22.48
2022-08-11T19:46:21.662Z,22.53
2022-08-11T19:49:14.150Z,22.43
2022-08-11T19:52:01.288Z,22.43
2022-08-11T19:54:53.409Z,22.40
2022-08-11T19:57:42.344Z,22.43
2022-08-11T20:00:37.739Z,22.36
2022-08-11T20:03:30.682Z,22.23
2022-08-11T20:06:20.953Z,22.17
2022-08-11T20:09:09.859Z,22.30
2022-08-11T20:12:01.530Z,22.31
2022-08-11T20:14:52.078Z,22.30
2022-08-11T20:17:40.272Z,22.19
2022-08-11T20:20:28.108Z,22.11
2022-08-11T20:23:18.422Z,22.15
2022-08-11T20:26:29.644Z,22.00
2022-08-11T20:29:13.959Z,21.86
2022-08-11T20:32:06.299Z,21.53
2022-08-11T20:34:58.040Z,21.70
2022-08-11T20:37:50.209Z,21.48
2022-08-11T20:40:42.954Z,21.58
2022-08-11T20:44:08.455Z,21.66
2022-08-11T20:46:45.696Z,21.60
2022-08-11T20:49:45.948Z,21.55
2022-08-11T20:52:41.975Z,21.49
2022-08-11T20:55:46.108Z,21.47
2022-08-11T20:59:11.193Z,21.45
2022-08-11T21:01:43.367Z,21.50
2022-08-11T21:04:30.315Z,21.48
2022-08-11T21:07:27.519Z,21.37
2022-08-11T21:10:23.377Z,21.43
2022-08-11T21:13:24.095Z,21.40
2022-08-11T21:16:25.411Z,21.38
2022-08-11T21:20:00.683Z,21.21
2022-08-11T21:22:33.091Z,21.31
2022-08-11T21:25:20.735Z,21.23
2022-08-11T21:28:10.855Z,21.28
2022-08-11T21:30:58.220Z,21.30
2022-08-11T21:33:47.400Z,21.35
2022-08-11T21:36:34.996Z,21.35
2022-08-11T21:39:24.949Z,21.41
2022-08-11T21:42:13.138Z,21.27
2022-08-11T21:45:01.912Z,21.39
2022-08-11T21:47:49.728Z,21.50
2022-08-11T21:50:47.516Z,21.43
2022-08-11T21:53:34.753Z,21.51
2022-08-11T21:56:22.342Z,21.46
2022-08-11T21:59:12.912Z,21.50
2022-08-11T22:01:58.932Z,21.49
2022-08-11T22:04:44.951Z,21.35
2022-08-11T22:07:31.570Z,21.48
2022-08-11T22:10:41.096Z,21.53
2022-08-11T22:13:31.541Z,21.35
2022-08-11T22:16:18.777Z,21.26
2022-08-11T22:19:08.077Z,21.34
2022-08-11T22:22:01.486Z,21.29
2022-08-11T22:24:51.640Z,21.20
2022-08-11T22:27:38.065Z,21.14
2022-08-11T22:30:28.984Z,21.23
2022-08-11T22:33:21.214Z,21.29
2022-08-11T22:36:14.036Z,21.21
2022-08-11T22:39:04.013Z,21.16
2022-08-11T22:41:50.866Z,21.22
2022-08-11T22:44:37.104Z,21.08
2022-08-11T22:47:30.234Z,21.16
2022-08-11T22:50:28.715Z,21.23
2022-08-11T22:53:15.802Z,21.17
2022-08-11T22:56:01.699Z,21.35
2022-08-11T22:58:48.659Z,21.33
2022-08-11T23:01:37.928Z,21.49
2022-08-11T23:04:42.470Z,21.46
2022-08-11T23:07:50.536Z,21.42
2022-08-11T23:10:35.533Z,21.35
2022-08-11T23:13:22.212Z,21.35
2022-08-11T23:16:09.279Z,21.29
2022-08-11T23:18:56.231Z,21.23
2022-08-11T23:21:43.353Z,21.24
2022-08-11T23:24:30.805Z,21.22
2022-08-11T23:27:18.796Z,21.34
2022-08-11T23:30:06.183Z,21.39
2022-08-11T23:32:52.597Z,21.45
2022-08-11T23:35:52.666Z,21.45
2022-08-11T23:38:42.759Z,21.46
2022-08-11T23:41:29.118Z,21.53
2022-08-11T23:44:15.174Z,21.31
2022-08-11T23:47:02.526Z,21.35
2022-08-11T23:49:48.931Z,21.30
2022-08-11T23:52:35.619Z,21.37
2022-08-11T23:55:22.498Z,21.33
2022-08-11T23:58:09.369Z,21.21
